LFKJ Airport Information

Runway Information
Runway 02 Length 7897 ft width 148 ft
Elevation 15 ft Threshold ft Heading 25
Runway 20 Length 7897 ft Width 148 ft
Elevation 18 ft Threshold 744 ft Heading 205
Airport Frequencies
Type AFIS Name AFIS Frequency 119.825 MHZ
Type APP Name AJACCIO AP Frequency 121.05 MHZ
Type ATIS Name AJACCIO AT Frequency 126.925 MHZ
Type GND Name AJACCIO GN Frequency 121.7 MHZ
Type TWR Name AJACCIO TW Frequency 118.075 MHZ
Airport Navaids
Type NDB Name Ajaccio/Campo Dell Oro Frequency 341 KHZ
Airport Weather Information & NOTAM
ADDS - METARS form results

(0313 UTC 13 January 2023)
Data provider http://aviationweather.gov/metar/data/
 
METAR text: LFKJ 130300Z AUTO 03004KT CAVOK 09/07 Q1022 NOSIG
Conditions at: LFKJ (AJACCIO/CAMPO OR, FR) observed 0300 UTC 13 January 2023
Temperature: 9.0°C (48°F)
Dewpoint: 7.0°C (45°F) [RH = 87%]
Pressure (altimeter): 30.18 inches Hg (1022.0 mb)
Winds: from the NNE (30 degrees) at 5 MPH (4 knots; 2.1 m/s)
Visibility: 6 or more miles (10+ km)
Ceiling: ceiling and visibility are OK
Clouds: unknown
Weather: no significant weather observed at this time

METAR text: LFKJ 130230Z AUTO 04005KT CAVOK 08/07 Q1023 NOSIG
Conditions at: LFKJ (AJACCIO/CAMPO OR, FR) observed 0230 UTC 13 January 2023
Temperature: 8.0°C (46°F)
Dewpoint: 7.0°C (45°F) [RH = 93%]
Pressure (altimeter): 30.21 inches Hg (1023.0 mb)
Winds: from the NE (40 degrees) at 6 MPH (5 knots; 2.6 m/s)
Visibility: 6 or more miles (10+ km)
Ceiling: ceiling and visibility are OK
Clouds: unknown
Weather: no significant weather observed at this time

Forecast for: LFKJ (AJACCIO/CAMPO OR, FR)
Text: TAF LFKJ 130200Z 1303/1403 04005KT 9999 FEW040 BKN160
Forecast period: 0300 UTC 13 January 2023 to 0300 UTC 14 January 2023
Forecast type: FROM: standard forecast or significant change
Winds: from the NE (40 degrees) at 6 MPH (5 knots; 2.6 m/s)
Visibility: 6 or more miles (10+ km)
Ceiling: 16000 feet AGL
Clouds: few clouds at 4000 feet AGL
broken clouds at 16000 feet AGL
Weather: no significant weather forecast for this period
Text: TEMPO 1312/1315 24010KT
Forecast period: 1200 to 1500 UTC 13 January 2023
Forecast type: TEMPORARY: The following changes expected for less than half the time period
Winds: from the WSW (240 degrees) at 12 MPH (10 knots; 5.1 m/s)
Visibility: missing
Ceiling: unknown
Clouds: missing
Weather: no significant weather forecast for this period